createdAt,value
2023-05-19T00:01:43.871Z,6.64
2023-05-19T00:04:30.741Z,6.66
2023-05-19T00:07:36.699Z,6.72
2023-05-19T00:10:25.290Z,6.68
2023-05-19T00:16:23.241Z,6.63
2023-05-19T00:19:10.772Z,6.57
2023-05-19T00:21:56.691Z,6.42
2023-05-19T00:24:42.853Z,5.97
2023-05-19T00:27:36.819Z,6.05
2023-05-19T00:30:29.617Z,6.20
2023-05-19T00:33:22.287Z,6.17
2023-05-19T00:36:15.754Z,6.25
2023-05-19T00:39:08.486Z,6.46
2023-05-19T00:42:02.668Z,6.37
2023-05-19T00:44:56.777Z,6.48
2023-05-19T00:51:04.472Z,6.30
2023-05-19T00:57:14.735Z,6.38
2023-05-19T01:03:23.936Z,6.18
2023-05-19T01:06:19.088Z,6.09
2023-05-19T01:09:17.359Z,6.17
2023-05-19T01:12:10.525Z,6.19
2023-05-19T01:15:05.291Z,5.97
2023-05-19T01:18:03.418Z,6.08
2023-05-19T01:24:18.179Z,6.01
2023-05-19T01:30:31.971Z,5.85
2023-05-19T01:33:25.410Z,5.78
2023-05-19T01:36:27.198Z,5.63
2023-05-19T01:39:20.823Z,5.71
2023-05-19T01:42:14.319Z,5.80
2023-05-19T01:45:10.273Z,5.96
2023-05-19T01:48:06.371Z,5.86
2023-05-19T01:51:00.539Z,5.77
2023-05-19T01:53:54.106Z,5.85
2023-05-19T01:56:53.869Z,5.61
2023-05-19T02:03:18.093Z,5.31
2023-05-19T02:09:26.621Z,5.08
2023-05-19T02:12:26.788Z,5.11
2023-05-19T02:15:17.424Z,5.25
2023-05-19T02:18:12.760Z,5.40
2023-05-19T02:21:05.862Z,5.58
2023-05-19T02:23:58.677Z,5.44
2023-05-19T02:26:52.271Z,5.43
2023-05-19T02:29:44.364Z,5.52
2023-05-19T02:32:37.742Z,5.48
2023-05-19T02:35:31.759Z,5.44
2023-05-19T02:38:24.599Z,5.48
2023-05-19T02:41:18.451Z,5.43
2023-05-19T02:44:11.572Z,5.40
2023-05-19T02:50:16.897Z,4.89
2023-05-19T02:53:10.989Z,4.95
2023-05-19T02:56:40.761Z,5.24
2023-05-19T02:59:33.628Z,5.37
2023-05-19T03:03:03.822Z,5.48
2023-05-19T03:05:56.576Z,5.29
2023-05-19T03:08:50.847Z,5.28
2023-05-19T03:12:20.770Z,5.19
2023-05-19T03:15:14.954Z,5.25
2023-05-19T03:21:19.850Z,4.96
2023-05-19T03:24:13.948Z,4.94
2023-05-19T03:27:06.202Z,5.16
2023-05-19T03:29:59.387Z,5.27
2023-05-19T03:32:53.170Z,5.23
2023-05-19T03:35:45.320Z,5.19
2023-05-19T03:38:38.401Z,5.05
2023-05-19T03:41:32.723Z,4.96
2023-05-19T03:44:26.871Z,4.62
2023-05-19T03:47:19.753Z,5.05
2023-05-19T03:53:49.239Z,5.20
2023-05-19T03:56:43.787Z,5.39
2023-05-19T03:59:37.144Z,5.20
2023-05-19T04:02:30.467Z,5.01
2023-05-19T04:05:36.710Z,5.18
2023-05-19T04:08:30.478Z,5.22
2023-05-19T04:14:28.720Z,5.71
2023-05-19T04:17:23.529Z,5.64
2023-05-19T04:20:16.462Z,5.97
2023-05-19T04:23:09.492Z,5.94
2023-05-19T04:26:03.535Z,6.18
2023-05-19T04:28:57.752Z,6.43
2023-05-19T04:32:18.198Z,6.59
2023-05-19T04:35:13.575Z,6.66
2023-05-19T04:38:06.677Z,6.85
2023-05-19T04:44:18.008Z,6.84
2023-05-19T04:47:13.250Z,7.29
2023-05-19T04:50:04.106Z,7.43
2023-05-19T04:52:56.468Z,7.76
2023-05-19T04:55:51.503Z,8.07
2023-05-19T04:58:44.681Z,8.25
2023-05-19T05:01:40.182Z,8.45
2023-05-19T05:04:34.502Z,8.68
2023-05-19T05:07:31.595Z,8.90
2023-05-19T05:10:25.359Z,9.12
2023-05-19T05:13:19.822Z,9.38
2023-05-19T05:19:19.834Z,10.75
2023-05-19T05:22:14.162Z,12.23
2023-05-19T05:25:09.215Z,13.74
2023-05-19T05:28:39.873Z,15.02
2023-05-19T05:31:32.524Z,16.68
2023-05-19T05:34:25.963Z,17.60
2023-05-19T05:40:28.176Z,19.92
2023-05-19T05:43:21.242Z,20.94
2023-05-19T05:46:23.446Z,21.99
2023-05-19T05:49:16.879Z,22.58
2023-05-19T05:52:12.318Z,23.16
2023-05-19T05:55:12.180Z,23.54
2023-05-19T05:58:10.964Z,24.04
2023-05-19T06:01:04.640Z,24.32
2023-05-19T06:03:57.319Z,24.40
2023-05-19T06:06:52.563Z,25.13
2023-05-19T06:09:48.241Z,25.59
2023-05-19T06:12:43.108Z,25.88
2023-05-19T06:18:50.894Z,27.60
2023-05-19T06:21:45.169Z,28.32
2023-05-19T06:24:39.607Z,28.81
2023-05-19T06:27:34.890Z,28.98
2023-05-19T06:30:28.271Z,29.40
2023-05-19T06:33:40.757Z,29.68
2023-05-19T06:36:35.156Z,29.99
2023-05-19T06:39:28.755Z,30.24
2023-05-19T06:42:22.414Z,30.16
2023-05-19T06:45:22.451Z,29.57
2023-05-19T06:48:42.996Z,28.34
2023-05-19T06:51:35.815Z,27.88
2023-05-19T06:54:56.871Z,26.72
2023-05-19T06:57:49.450Z,26.42
2023-05-19T07:00:58.783Z,25.12
2023-05-19T07:03:58.116Z,25.60
2023-05-19T07:10:12.316Z,26.67
2023-05-19T07:16:51.564Z,27.34
2023-05-19T07:19:46.032Z,27.17
2023-05-19T07:22:39.630Z,27.46
2023-05-19T07:25:33.139Z,28.52
2023-05-19T07:28:25.778Z,29.76
2023-05-19T07:31:18.574Z,28.72
2023-05-19T07:34:11.607Z,28.91
2023-05-19T07:37:05.691Z,27.65
2023-05-19T07:39:52.021Z,28.79
2023-05-19T07:42:44.628Z,27.37
2023-05-19T07:45:37.727Z,27.86
2023-05-19T07:48:30.818Z,27.02
2023-05-19T07:51:23.747Z,27.86
2023-05-19T07:54:22.253Z,28.67
2023-05-19T07:57:15.069Z,29.13
2023-05-19T08:00:11.502Z,28.86
2023-05-19T08:03:07.811Z,28.65
2023-05-19T08:06:00.761Z,28.43
2023-05-19T08:08:54.164Z,29.31
2023-05-19T08:11:47.798Z,28.84
2023-05-19T08:18:01.651Z,27.51
2023-05-19T08:24:42.468Z,28.87
2023-05-19T08:27:36.634Z,28.65
2023-05-19T08:33:58.587Z,29.04
2023-05-19T08:36:51.739Z,27.79
2023-05-19T08:39:44.635Z,27.21
2023-05-19T08:42:33.842Z,28.24
2023-05-19T08:45:28.039Z,26.70
2023-05-19T08:48:20.862Z,28.76
2023-05-19T08:51:19.317Z,29.04
2023-05-19T08:54:15.602Z,27.91
2023-05-19T08:57:09.905Z,27.84
2023-05-19T09:00:08.046Z,28.13
2023-05-19T09:09:10.988Z,28.97
2023-05-19T09:12:03.982Z,29.71
2023-05-19T09:15:02.298Z,28.98
2023-05-19T09:18:07.954Z,28.54
2023-05-19T09:21:02.616Z,28.36
2023-05-19T09:23:55.814Z,27.54
2023-05-19T09:26:48.683Z,26.04
2023-05-19T09:29:41.403Z,26.58
2023-05-19T09:32:36.169Z,25.99
2023-05-19T09:35:30.561Z,25.97
2023-05-19T09:38:25.130Z,25.15
2023-05-19T09:41:18.344Z,26.38
2023-05-19T09:44:13.962Z,25.57
2023-05-19T09:47:07.042Z,25.96
2023-05-19T09:49:59.705Z,26.00
2023-05-19T09:52:54.051Z,23.72
2023-05-19T09:55:46.571Z,23.78
2023-05-19T09:58:42.728Z,23.56
2023-05-19T10:01:36.311Z,23.88
2023-05-19T10:04:32.840Z,22.36
2023-05-19T10:07:25.599Z,22.75
2023-05-19T10:10:20.926Z,21.84
2023-05-19T10:13:13.926Z,22.53
2023-05-19T10:16:06.969Z,21.75
2023-05-19T10:19:00.775Z,21.73
2023-05-19T10:21:54.305Z,22.27
2023-05-19T10:24:47.015Z,22.17
2023-05-19T10:30:38.999Z,21.15
2023-05-19T10:33:32.945Z,22.09
2023-05-19T10:36:33.496Z,22.22
2023-05-19T10:42:39.160Z,22.49
2023-05-19T10:48:47.050Z,24.55
2023-05-19T10:51:34.020Z,23.64
2023-05-19T10:54:40.689Z,23.64
2023-05-19T10:57:28.436Z,24.29
2023-05-19T11:00:28.470Z,24.70
2023-05-19T11:03:16.121Z,25.26
2023-05-19T11:06:19.364Z,25.22
2023-05-19T11:09:13.946Z,25.07
2023-05-19T11:12:07.394Z,25.08
2023-05-19T11:18:28.297Z,25.32
2023-05-19T11:21:22.342Z,25.50
2023-05-19T11:24:34.206Z,25.76
2023-05-19T11:27:28.721Z,24.80
2023-05-19T11:30:21.681Z,24.56
2023-05-19T11:33:14.901Z,24.37
2023-05-19T11:36:07.795Z,25.01
2023-05-19T11:39:02.559Z,25.46
2023-05-19T11:42:20.953Z,25.51
2023-05-19T11:45:13.750Z,24.86
2023-05-19T11:48:43.919Z,24.12
2023-05-19T11:51:39.510Z,22.88
2023-05-19T11:54:36.600Z,22.56
2023-05-19T11:57:29.835Z,23.63
2023-05-19T12:00:23.523Z,24.07
2023-05-19T12:03:17.259Z,24.43
2023-05-19T12:06:11.157Z,24.14
2023-05-19T12:09:05.429Z,23.90
2023-05-19T12:11:59.018Z,23.50
2023-05-19T12:14:52.675Z,23.14
2023-05-19T12:17:51.199Z,23.53
2023-05-19T12:20:43.326Z,23.51
2023-05-19T12:23:35.690Z,24.51
2023-05-19T12:26:28.990Z,24.05
2023-05-19T12:29:22.953Z,23.99
2023-05-19T12:32:16.335Z,24.63
2023-05-19T12:38:21.473Z,25.50
2023-05-19T12:44:24.863Z,25.49
2023-05-19T12:47:19.664Z,25.87
2023-05-19T12:50:12.625Z,26.15
2023-05-19T12:53:09.918Z,25.17
2023-05-19T12:56:27.932Z,23.91
2023-05-19T12:59:37.279Z,23.17
2023-05-19T13:02:30.819Z,22.52
2023-05-19T13:05:24.563Z,22.79
2023-05-19T13:08:19.014Z,23.99
2023-05-19T13:11:11.690Z,24.89
2023-05-19T13:14:04.404Z,25.25
2023-05-19T13:20:11.940Z,24.84
2023-05-19T13:23:05.673Z,24.91
2023-05-19T13:25:59.281Z,24.90
2023-05-19T13:32:12.404Z,25.11
2023-05-19T13:38:31.138Z,26.03
2023-05-19T13:41:24.748Z,25.12
2023-05-19T13:44:17.630Z,24.21
2023-05-19T13:47:10.783Z,24.26
2023-05-19T13:50:04.298Z,25.05
2023-05-19T13:52:56.966Z,24.54
2023-05-19T13:55:52.864Z,23.79
2023-05-19T13:58:45.707Z,22.54
2023-05-19T14:01:38.439Z,22.37
2023-05-19T14:04:31.965Z,22.90
2023-05-19T14:07:25.347Z,23.65
2023-05-19T14:13:31.560Z,24.01
2023-05-19T14:16:26.299Z,23.77
2023-05-19T14:19:18.854Z,22.76
2023-05-19T14:22:13.230Z,21.83
2023-05-19T14:25:06.310Z,22.07
2023-05-19T14:27:58.888Z,22.72
2023-05-19T14:30:54.279Z,23.84
2023-05-19T14:33:46.545Z,24.23
2023-05-19T14:36:39.292Z,24.39
2023-05-19T14:39:31.934Z,24.92
2023-05-19T14:42:24.443Z,25.03
2023-05-19T14:45:16.488Z,25.78
2023-05-19T14:51:23.271Z,25.98
2023-05-19T14:54:15.933Z,26.47
2023-05-19T14:57:08.690Z,26.53
2023-05-19T15:00:01.786Z,24.80
2023-05-19T15:02:54.329Z,23.02
2023-05-19T15:05:46.887Z,22.15
2023-05-19T15:08:41.430Z,22.21
2023-05-19T15:11:33.502Z,23.46
2023-05-19T15:15:03.895Z,24.69
2023-05-19T15:17:56.516Z,25.63
2023-05-19T15:24:20.103Z,23.58
2023-05-19T15:27:12.811Z,23.12
2023-05-19T15:30:06.412Z,22.16
2023-05-19T15:32:58.701Z,22.15
2023-05-19T15:35:55.319Z,22.71
2023-05-19T15:38:47.835Z,23.39
2023-05-19T15:41:42.192Z,24.12
2023-05-19T15:44:36.354Z,23.72
2023-05-19T15:47:28.516Z,23.68
2023-05-19T15:50:21.772Z,23.09
2023-05-19T15:53:51.900Z,22.89
2023-05-19T15:56:45.980Z,23.18
2023-05-19T15:59:38.860Z,23.43
2023-05-19T16:02:31.714Z,23.29
2023-05-19T16:05:24.925Z,22.98
2023-05-19T16:11:29.994Z,22.33
2023-05-19T16:14:24.505Z,21.65
2023-05-19T16:20:29.721Z,20.93
2023-05-19T16:23:24.508Z,20.91
2023-05-19T16:29:45.658Z,20.84
2023-05-19T16:32:38.851Z,20.88
2023-05-19T16:35:32.074Z,20.97
2023-05-19T16:38:24.616Z,20.72
2023-05-19T16:41:17.556Z,20.81
2023-05-19T16:47:48.161Z,20.88
2023-05-19T16:51:17.901Z,19.95
2023-05-19T16:54:10.817Z,19.98
2023-05-19T16:57:04.559Z,19.76
2023-05-19T17:03:07.375Z,19.58
2023-05-19T17:06:00.778Z,19.69
2023-05-19T17:09:02.925Z,19.53
2023-05-19T17:11:56.416Z,19.67
2023-05-19T17:14:50.262Z,19.70
2023-05-19T17:17:42.836Z,19.89
2023-05-19T17:20:36.789Z,19.74
2023-05-19T17:23:29.455Z,19.71
2023-05-19T17:29:34.416Z,19.48
2023-05-19T17:35:32.035Z,19.04
2023-05-19T17:38:26.092Z,19.01
2023-05-19T17:41:18.646Z,18.96
2023-05-19T17:44:36.707Z,18.83
2023-05-19T17:47:29.829Z,18.66
2023-05-19T17:50:37.989Z,18.66
2023-05-19T17:53:32.519Z,18.87
2023-05-19T17:56:26.497Z,18.75
2023-05-19T17:59:19.166Z,18.68
2023-05-19T18:02:12.875Z,18.65
2023-05-19T18:05:07.072Z,18.58
2023-05-19T18:08:03.404Z,18.43
2023-05-19T18:10:58.256Z,18.75
2023-05-19T18:13:50.564Z,18.89
2023-05-19T18:16:44.056Z,18.77
2023-05-19T18:20:08.550Z,18.63
2023-05-19T18:23:02.572Z,18.20
2023-05-19T18:29:11.125Z,18.14
2023-05-19T18:35:17.129Z,18.53
2023-05-19T18:38:09.641Z,18.11
2023-05-19T18:41:09.300Z,18.19
2023-05-19T18:44:01.531Z,18.13
2023-05-19T18:46:54.998Z,18.15
2023-05-19T18:49:47.956Z,18.29
2023-05-19T18:52:40.816Z,17.83
2023-05-19T18:55:33.574Z,17.83
2023-05-19T19:01:35.101Z,17.42
2023-05-19T19:04:29.338Z,17.36
2023-05-19T19:10:38.928Z,17.13
2023-05-19T19:13:31.604Z,17.05
2023-05-19T19:16:24.795Z,17.03
2023-05-19T19:19:54.997Z,16.74
2023-05-19T19:22:48.947Z,16.53
2023-05-19T19:26:18.930Z,16.18
2023-05-19T19:29:11.896Z,15.95
2023-05-19T19:32:05.371Z,15.67
2023-05-19T19:34:57.878Z,15.64
2023-05-19T19:37:52.532Z,15.33
2023-05-19T19:40:44.421Z,15.13
2023-05-19T19:43:36.554Z,14.74
2023-05-19T19:46:29.766Z,14.74
2023-05-19T19:49:23.016Z,14.51
2023-05-19T19:55:23.939Z,13.96
2023-05-19T19:58:16.878Z,13.70
2023-05-19T20:01:09.918Z,13.54
2023-05-19T20:04:39.959Z,13.62
2023-05-19T20:07:33.041Z,13.65
2023-05-19T20:10:27.269Z,13.39
2023-05-19T20:16:40.284Z,13.21
2023-05-19T20:19:32.888Z,13.09
2023-05-19T20:22:25.465Z,13.02
2023-05-19T20:25:17.618Z,12.91
2023-05-19T20:28:12.102Z,12.90
2023-05-19T20:34:37.537Z,12.76
2023-05-19T20:37:54.710Z,12.70
2023-05-19T20:40:41.863Z,12.61
2023-05-19T20:47:22.114Z,12.23
2023-05-19T20:50:14.922Z,11.93
2023-05-19T20:53:07.919Z,11.91
2023-05-19T20:56:00.601Z,11.74
2023-05-19T21:02:07.498Z,11.36
2023-05-19T21:05:02.370Z,11.30
2023-05-19T21:07:54.575Z,11.19
2023-05-19T21:10:47.707Z,11.24
2023-05-19T21:13:40.505Z,11.23
2023-05-19T21:16:29.805Z,11.14
2023-05-19T21:19:22.826Z,11.37
2023-05-19T21:22:17.445Z,11.27
2023-05-19T21:25:09.967Z,11.22
2023-05-19T21:28:03.215Z,11.28
2023-05-19T21:30:55.674Z,11.06
2023-05-19T21:33:48.585Z,10.76
2023-05-19T21:36:42.184Z,10.58
2023-05-19T21:39:35.484Z,10.61
2023-05-19T21:42:27.972Z,10.95
2023-05-19T21:45:20.672Z,10.93
2023-05-19T21:48:13.717Z,10.96
2023-05-19T21:51:00.437Z,10.99
2023-05-19T21:53:52.588Z,10.69
2023-05-19T21:56:47.245Z,10.69
2023-05-19T21:59:39.997Z,10.62
2023-05-19T22:02:33.005Z,10.74
2023-05-19T22:05:25.942Z,10.54
2023-05-19T22:08:19.587Z,10.61
2023-05-19T22:11:14.763Z,10.54
2023-05-19T22:14:08.834Z,10.46
2023-05-19T22:17:02.032Z,10.62
2023-05-19T22:20:26.739Z,10.47
2023-05-19T22:23:19.844Z,10.47
2023-05-19T22:26:12.991Z,10.48
2023-05-19T22:29:06.042Z,10.74
2023-05-19T22:32:00.408Z,10.63
2023-05-19T22:34:54.635Z,10.37
2023-05-19T22:37:47.876Z,10.44
2023-05-19T22:40:40.759Z,10.39
2023-05-19T22:43:33.544Z,10.56
2023-05-19T22:46:26.860Z,10.66
2023-05-19T22:49:24.328Z,10.72
2023-05-19T22:52:17.207Z,10.68
2023-05-19T22:55:10.483Z,10.67
2023-05-19T22:58:03.064Z,9.85
2023-05-19T23:04:09.201Z,10.25
2023-05-19T23:10:15.511Z,9.80
2023-05-19T23:16:20.086Z,9.91
2023-05-19T23:19:12.546Z,10.03
2023-05-19T23:22:06.213Z,10.06
2023-05-19T23:24:58.690Z,10.31
2023-05-19T23:27:53.381Z,10.21
2023-05-19T23:30:45.859Z,10.37
2023-05-19T23:33:38.444Z,10.52
2023-05-19T23:36:24.418Z,10.63
2023-05-19T23:39:10.501Z,10.25
2023-05-19T23:41:57.042Z,10.16
2023-05-19T23:44:44.537Z,10.24
2023-05-19T23:47:30.768Z,10.22
2023-05-19T23:50:16.881Z,10.16
2023-05-19T23:53:03.136Z,10.20
2023-05-19T23:55:49.230Z,10.17
2023-05-19T23:58:38.660Z,10.39
